Time;durP1;ratioP1;P1;durP2;ratioP2;P2;SDS_P1;SDS_P2;PMS_P1;PMS_P2;Temp;Humidity;BMP_temperature;BMP_pressure;BME280_temperature;BME280_humidity;BME280_pressure;Samples;Min_cycle;Max_cycle;Signal;HPM_P1;HPM_P2
2021/04/22 00:00:16;;;;;;;34.42;19.33;;;;;;;;;;8328814;28;20391;-70
2021/04/22 00:04:20;;;;;;;36.15;18.88;;;;;;;;;;8326788;28;20451;-70
2021/04/22 00:08:25;;;;;;;43.28;20.27;;;;;;;;;;8327924;28;20386;-70
2021/04/22 00:12:29;;;;;;;35.00;18.52;;;;;;;;;;8326443;28;20399;-72
2021/04/22 00:16:34;;;;;;;45.28;20.42;;;;;;;;;;8329322;28;20393;-71
2021/04/22 00:20:39;;;;;;;40.78;18.23;;;;;;;;;;8326455;28;20466;-70
2021/04/22 00:24:44;;;;;;;41.80;18.58;;;;;;;;;;8328165;28;20451;-71
2021/04/22 00:28:49;;;;;;;38.67;17.80;;;;;;;;;;8327817;28;20363;-70
2021/04/22 00:32:54;;;;;;;31.55;16.95;;;;;;;;;;8346145;28;20486;-70
2021/04/22 00:36:59;;;;;;;29.45;14.55;;;;;;;;;;8326536;28;20352;-70
2021/04/22 00:41:03;;;;;;;36.90;19.55;;;;;;;;;;8327967;28;20454;-70
2021/04/22 00:45:09;;;;;;;35.90;18.25;;;;;;;;;;8325832;28;20056;-71
2021/04/22 00:49:14;;;;;;;33.78;16.65;;;;;;;;;;8326297;28;20371;-71
2021/04/22 00:53:20;;;;;;;39.22;17.33;;;;;;;;;;8325479;28;20379;-70
2021/04/22 00:57:24;;;;;;;38.55;16.77;;;;;;;;;;8325287;28;20340;-71
2021/04/22 01:01:29;;;;;;;35.00;16.17;;;;;;;;;;8306946;28;20371;-70
2021/04/22 01:05:39;;;;;;;38.17;18.10;;;;;;;;;;8327421;28;20642;-72
2021/04/22 01:09:44;;;;;;;37.72;16.70;;;;;;;;;;8326562;28;20372;-70
2021/04/22 01:13:48;;;;;;;31.48;16.55;;;;;;;;;;8326456;28;20067;-72
2021/04/22 01:17:53;;;;;;;31.90;16.42;;;;;;;;;;8325113;28;20355;-70
2021/04/22 01:21:57;;;;;;;32.72;17.45;;;;;;;;;;8328521;28;20474;-70
2021/04/22 01:26:02;;;;;;;32.45;16.58;;;;;;;;;;8326108;28;20479;-70
2021/04/22 01:30:16;;;;;;;39.33;20.17;;;;;;;;;;8325811;28;20344;-70
2021/04/22 01:34:21;;;;;;;39.22;19.02;;;;;;;;;;8326139;28;20378;-70
2021/04/22 01:38:27;;;;;;;34.00;17.60;;;;;;;;;;8326128;28;20052;-69
2021/04/22 01:42:31;;;;;;;31.52;16.42;;;;;;;;;;8356184;27;20497;-70
2021/04/22 01:46:36;;;;;;;32.53;16.05;;;;;;;;;;8339964;28;20351;-70
2021/04/22 01:50:41;;;;;;;32.88;15.15;;;;;;;;;;8325733;28;20355;-69
2021/04/22 01:54:45;;;;;;;33.00;15.40;;;;;;;;;;8324836;28;20355;-70
2021/04/22 01:58:50;;;;;;;27.95;16.40;;;;;;;;;;8325630;28;20366;-71
2021/04/22 02:02:54;;;;;;;30.08;15.45;;;;;;;;;;8356278;27;20348;-71
2021/04/22 02:07:00;;;;;;;27.70;15.68;;;;;;;;;;8323194;28;20389;-69
2021/04/22 02:11:05;;;;;;;34.25;16.52;;;;;;;;;;8324787;28;20482;-70
2021/04/22 02:15:18;;;;;;;32.60;16.23;;;;;;;;;;8323968;28;20358;-70
2021/04/22 02:19:23;;;;;;;32.28;15.43;;;;;;;;;;8326444;28;20071;-71
2021/04/22 02:23:29;;;;;;;32.42;16.40;;;;;;;;;;8324469;28;20462;-70
2021/04/22 02:27:34;;;;;;;28.42;15.20;;;;;;;;;;8324399;28;20470;-69
2021/04/22 02:31:39;;;;;;;34.45;16.42;;;;;;;;;;8323909;28;20369;-70
2021/04/22 02:35:44;;;;;;;36.50;16.73;;;;;;;;;;8327001;28;20469;-72
2021/04/22 02:39:48;;;;;;;27.70;15.82;;;;;;;;;;8323822;28;20490;-70
2021/04/22 02:43:53;;;;;;;28.52;15.68;;;;;;;;;;8323478;28;20055;-70
2021/04/22 02:47:59;;;;;;;27.70;15.65;;;;;;;;;;8323421;28;20523;-70
2021/04/22 02:52:04;;;;;;;28.70;15.95;;;;;;;;;;8354536;27;20376;-70
2021/04/22 02:56:08;;;;;;;30.70;15.63;;;;;;;;;;8323024;28;20356;-70
2021/04/22 03:00:21;;;;;;;30.17;15.80;;;;;;;;;;8323242;28;20474;-71
2021/04/22 03:04:26;;;;;;;26.70;14.05;;;;;;;;;;8337873;28;20497;-70
2021/04/22 03:08:35;;;;;;;29.70;15.88;;;;;;;;;;8337109;28;20366;-70
2021/04/22 03:12:40;;;;;;;29.27;14.95;;;;;;;;;;8323801;28;20052;-70
2021/04/22 03:16:45;;;;;;;28.05;14.20;;;;;;;;;;8336847;28;20501;-70
2021/04/22 03:20:50;;;;;;;28.67;14.75;;;;;;;;;;8324223;28;20366;-70
2021/04/22 03:24:54;;;;;;;30.83;15.82;;;;;;;;;;8323593;28;20339;-69
2021/04/22 03:28:58;;;;;;;30.23;14.98;;;;;;;;;;8324873;28;20425;-71
2021/04/22 03:33:04;;;;;;;31.67;15.23;;;;;;;;;;8330880;28;20664;-75
2021/04/22 03:37:09;;;;;;;31.35;15.68;;;;;;;;;;8329032;28;20070;-69
2021/04/22 03:41:12;;;;;;;27.58;15.23;;;;;;;;;;8329223;28;20390;-70
2021/04/22 03:45:17;;;;;;;26.70;14.98;;;;;;;;;;8330773;28;20375;-69
2021/04/22 03:49:22;;;;;;;31.67;16.83;;;;;;;;;;8329237;28;20382;-70
2021/04/22 03:53:26;;;;;;;33.08;15.80;;;;;;;;;;8329027;28;20467;-70
2021/04/22 03:57:31;;;;;;;26.80;14.68;;;;;;;;;;8327887;28;20462;-70
2021/04/22 04:01:35;;;;;;;29.30;14.88;;;;;;;;;;8328239;28;20374;-70
2021/04/22 04:05:39;;;;;;;28.38;15.82;;;;;;;;;;8329513;28;20332;-70
2021/04/22 04:09:44;;;;;;;30.02;14.60;;;;;;;;;;8328421;28;20375;-70
2021/04/22 04:13:48;;;;;;;28.98;15.80;;;;;;;;;;8343453;28;20378;-69
2021/04/22 04:17:52;;;;;;;28.27;15.43;;;;;;;;;;8330138;28;20462;-70
2021/04/22 04:21:57;;;;;;;41.85;18.92;;;;;;;;;;8329436;28;20374;-70
2021/04/22 04:26:02;;;;;;;67.07;24.25;;;;;;;;;;8327928;28;20459;-70
2021/04/22 04:30:10;;;;;;;69.88;25.52;;;;;;;;;;8329924;28;20348;-69
2021/04/22 04:34:15;;;;;;;59.22;22.52;;;;;;;;;;8327769;28;20048;-69
2021/04/22 04:38:19;;;;;;;46.75;19.42;;;;;;;;;;8328440;28;20493;-72
2021/04/22 04:42:24;;;;;;;60.10;21.33;;;;;;;;;;8327872;28;20496;-71
2021/04/22 04:46:29;;;;;;;52.55;21.67;;;;;;;;;;8327452;28;20048;-70
2021/04/22 04:50:34;;;;;;;54.33;21.13;;;;;;;;;;8329361;28;20074;-70
2021/04/22 04:54:38;;;;;;;52.60;20.55;;;;;;;;;;8325937;28;20489;-70
2021/04/22 04:58:43;;;;;;;60.00;24.13;;;;;;;;;;8328214;28;20447;-70
2021/04/22 05:02:48;;;;;;;59.97;24.08;;;;;;;;;;8325320;28;20381;-71
2021/04/22 05:06:55;;;;;;;67.03;26.80;;;;;;;;;;8342192;28;20467;-70
2021/04/22 05:10:58;;;;;;;48.38;22.38;;;;;;;;;;8341341;28;20354;-70
2021/04/22 05:15:06;;;;;;;46.60;20.90;;;;;;;;;;8326758;28;20377;-69
2021/04/22 05:19:10;;;;;;;61.42;30.63;;;;;;;;;;8325420;28;20052;-71
2021/04/22 05:23:14;;;;;;;53.10;27.75;;;;;;;;;;8325813;28;20355;-70
2021/04/22 05:27:19;;;;;;;59.50;27.23;;;;;;;;;;8325547;28;20382;-70
2021/04/22 05:31:25;;;;;;;48.08;25.17;;;;;;;;;;8325266;28;20109;-71
2021/04/22 05:35:29;;;;;;;44.47;24.08;;;;;;;;;;8326055;28;20070;-71
2021/04/22 05:39:34;;;;;;;27.70;15.88;;;;;;;;;;8341357;28;20477;-70
2021/04/22 05:43:39;;;;;;;27.10;14.90;;;;;;;;;;8325919;28;20079;-70
2021/04/22 05:47:42;;;;;;;25.92;13.60;;;;;;;;;;8325370;28;20428;-71
2021/04/22 05:51:47;;;;;;;23.98;12.43;;;;;;;;;;8325776;28;20507;-70
2021/04/22 05:55:51;;;;;;;23.77;12.23;;;;;;;;;;8340747;28;20352;-70
2021/04/22 05:59:55;;;;;;;27.80;12.25;;;;;;;;;;8325833;28;20481;-70
2021/04/22 06:04:00;;;;;;;19.88;10.93;;;;;;;;;;8340698;28;20481;-70
2021/04/22 06:08:04;;;;;;;18.80;10.82;;;;;;;;;;8325724;28;20332;-70
2021/04/22 06:12:10;;;;;;;17.25;10.77;;;;;;;;;;8326778;28;20052;-70
2021/04/22 06:16:14;;;;;;;21.45;10.40;;;;;;;;;;8323850;28;20405;-70
2021/04/22 06:20:24;;;;;;;20.17;11.85;;;;;;;;;;8326478;28;20356;-71
2021/04/22 06:24:28;;;;;;;18.15;11.52;;;;;;;;;;8355944;27;20368;-70
2021/04/22 06:28:33;;;;;;;22.33;11.70;;;;;;;;;;8322125;28;20600;-71
2021/04/22 06:32:37;;;;;;;25.20;13.18;;;;;;;;;;8323280;28;20474;-70
2021/04/22 06:36:43;;;;;;;24.33;12.40;;;;;;;;;;8354986;27;20102;-71
2021/04/22 06:40:48;;;;;;;21.38;11.82;;;;;;;;;;8325223;28;20386;-70
2021/04/22 06:44:52;;;;;;;24.23;13.50;;;;;;;;;;8324979;28;20447;-70
2021/04/22 06:48:57;;;;;;;24.23;12.77;;;;;;;;;;8323141;28;20371;-71
2021/04/22 06:53:03;;;;;;;29.15;13.50;;;;;;;;;;8322451;28;20109;-70
2021/04/22 06:57:07;;;;;;;31.40;14.55;;;;;;;;;;8337791;28;20056;-70
2021/04/22 07:01:12;;;;;;;33.38;15.57;;;;;;;;;;8324070;28;20469;-70
2021/04/22 07:05:18;;;;;;;31.75;14.48;;;;;;;;;;8339944;28;20348;-70
2021/04/22 07:09:24;;;;;;;25.90;13.20;;;;;;;;;;8320417;28;20052;-71
2021/04/22 07:13:28;;;;;;;24.13;14.07;;;;;;;;;;8336369;28;20409;-71
2021/04/22 07:17:32;;;;;;;17.92;9.68;;;;;;;;;;8322080;28;20056;-70
2021/04/22 07:21:40;;;;;;;14.15;7.85;;;;;;;;;;8323431;28;20048;-70
2021/04/22 07:25:44;;;;;;;13.38;7.97;;;;;;;;;;8325656;28;20044;-70
2021/04/22 07:29:50;;;;;;;15.82;8.02;;;;;;;;;;8324634;28;20381;-71
2021/04/22 07:33:55;;;;;;;12.57;7.82;;;;;;;;;;8324502;28;20438;-71
2021/04/22 07:37:59;;;;;;;9.57;5.70;;;;;;;;;;8325440;28;20485;-71
2021/04/22 07:42:04;;;;;;;10.80;5.97;;;;;;;;;;8324586;28;20382;-71
2021/04/22 07:46:09;;;;;;;14.35;9.85;;;;;;;;;;8323229;28;20429;-72
2021/04/22 07:50:17;;;;;;;11.93;5.80;;;;;;;;;;8322323;28;20426;-72
2021/04/22 07:54:21;;;;;;;8.18;5.15;;;;;;;;;;8325814;28;20078;-73
2021/04/22 07:58:25;;;;;;;10.35;6.05;;;;;;;;;;8326180;28;20048;-72
2021/04/22 08:02:30;;;;;;;10.90;5.35;;;;;;;;;;8320786;28;20492;-73
2021/04/22 08:06:35;;;;;;;14.40;7.15;;;;;;;;;;8323355;28;20091;-73
2021/04/22 08:10:45;;;;;;;11.23;5.57;;;;;;;;;;8325806;28;20454;-73
2021/04/22 08:14:50;;;;;;;13.63;7.93;;;;;;;;;;8328604;28;20343;-73
2021/04/22 08:18:55;;;;;;;18.48;8.15;;;;;;;;;;8334086;28;20466;-73
2021/04/22 08:23:02;;;;;;;19.58;4.68;;;;;;;;;;8332980;28;20348;-72
2021/04/22 08:27:07;;;;;;;21.73;8.40;;;;;;;;;;8334187;28;20403;-73
2021/04/22 08:31:21;;;;;;;57.65;22.65;;;;;;;;;;8331136;28;20497;-73
2021/04/22 08:35:27;;;;;;;14.48;4.15;;;;;;;;;;8330538;28;20455;-73
2021/04/22 08:39:31;;;;;;;29.50;11.85;;;;;;;;;;8328751;28;20368;-74
2021/04/22 08:43:37;;;;;;;12.88;5.13;;;;;;;;;;8330344;28;20413;-73
2021/04/22 08:47:45;;;;;;;9.45;3.95;;;;;;;;;;8327198;28;20343;-73
2021/04/22 08:51:49;;;;;;;16.17;4.82;;;;;;;;;;8329639;28;20048;-73
2021/04/22 08:55:54;;;;;;;7.20;3.85;;;;;;;;;;8327669;28;20491;-73
2021/04/22 08:59:58;;;;;;;11.80;4.57;;;;;;;;;;8328594;28;20417;-75
2021/04/22 09:04:05;;;;;;;14.82;7.35;;;;;;;;;;8327082;28;20362;-73
2021/04/22 09:08:10;;;;;;;13.93;6.78;;;;;;;;;;8327292;28;20409;-73
2021/04/22 09:12:20;;;;;;;17.40;7.55;;;;;;;;;;8325388;28;20386;-72
2021/04/22 09:16:28;;;;;;;15.30;7.85;;;;;;;;;;8325812;28;20468;-73
2021/04/22 09:20:46;;;;;;;12.23;3.97;;;;;;;;;;8327700;28;20481;-72
2021/04/22 09:24:50;;;;;;;8.40;3.23;;;;;;;;;;8327094;28;20359;-73
2021/04/22 09:28:58;;;;;;;12.15;3.53;;;;;;;;;;8326863;28;20458;-73
2021/04/22 09:33:04;;;;;;;8.80;3.63;;;;;;;;;;8326509;28;20451;-73
2021/04/22 09:37:10;;;;;;;11.68;4.15;;;;;;;;;;8323714;28;20545;-73
2021/04/22 09:41:17;;;;;;;17.73;6.50;;;;;;;;;;8339652;28;20416;-74
2021/04/22 09:45:25;;;;;;;18.80;6.65;;;;;;;;;;8325875;28;20074;-72
2021/04/22 09:49:59;;;;;;;16.17;5.22;;;;;;;;;;8323725;28;20466;-72
2021/04/22 09:54:18;;;;;;;12.55;5.13;;;;;;;;;;8326284;28;20358;-74
2021/04/22 09:58:31;;;;;;;8.85;4.20;;;;;;;;;;8324308;28;20378;-72
2021/04/22 10:02:53;;;;;;;8.63;5.10;;;;;;;;;;8324950;28;20451;-72
2021/04/22 10:06:58;;;;;;;7.57;4.10;;;;;;;;;;8340217;28;20378;-72
2021/04/22 10:11:08;;;;;;;10.38;4.13;;;;;;;;;;8324019;28;20450;-74
2021/04/22 10:15:26;;;;;;;7.63;3.63;;;;;;;;;;8327154;28;20474;-72
2021/04/22 10:19:32;;;;;;;;;;;;;;;;;;8327176;28;20352;-72
2021/04/22 10:23:38;;;;;;;6.78;3.22;;;;;;;;;;8322769;28;20346;-72
2021/04/22 10:27:43;;;;;;;6.68;2.80;;;;;;;;;;8324142;28;20462;-71
2021/04/22 10:31:48;;;;;;;9.50;2.35;;;;;;;;;;8323980;28;20410;-71
2021/04/22 10:35:55;;;;;;;7.40;2.60;;;;;;;;;;8324843;28;20364;-72
2021/04/22 10:40:00;;;;;;;4.90;2.17;;;;;;;;;;8324933;28;20482;-72
2021/04/22 10:44:07;;;;;;;4.20;1.90;;;;;;;;;;8324500;28;20483;-72
2021/04/22 10:48:28;;;;;;;4.63;1.92;;;;;;;;;;8341048;28;20056;-72
2021/04/22 10:52:35;;;;;;;6.30;3.00;;;;;;;;;;8325253;28;20361;-72
2021/04/22 10:56:40;;;;;;;5.05;2.28;;;;;;;;;;8338651;28;20403;-71
2021/04/22 11:00:51;;;;;;;3.90;2.08;;;;;;;;;;8325358;28;20052;-71
2021/04/22 11:04:56;;;;;;;3.67;1.92;;;;;;;;;;8324060;28;20462;-72
2021/04/22 11:09:14;;;;;;;5.68;2.25;;;;;;;;;;8323990;28;20347;-71
2021/04/22 11:13:25;;;;;;;;;;;;;;;;;;8324505;28;20387;-71
2021/04/22 11:17:40;;;;;;;9.20;3.38;;;;;;;;;;8324637;28;19942;-71
2021/04/22 11:22:13;;;;;;;14.13;3.50;;;;;;;;;;8324761;28;20505;-71
2021/04/22 11:39:08;;;;;;;9.38;3.55;;;;;;;;;;8336370;28;20383;-70
2021/04/22 11:43:29;;;;;;;6.35;2.70;;;;;;;;;;8325552;28;20078;-71
2021/04/22 11:47:33;;;;;;;10.38;4.40;;;;;;;;;;8331185;28;20442;-71
2021/04/22 11:51:42;;;;;;;10.27;2.78;;;;;;;;;;8330741;28;20062;-71
2021/04/22 11:55:52;;;;;;;9.87;3.03;;;;;;;;;;8327372;28;20455;-70
2021/04/22 11:59:56;;;;;;;7.68;3.60;;;;;;;;;;8344158;28;20066;-71
2021/04/22 12:04:00;;;;;;;5.53;2.40;;;;;;;;;;8328650;28;20488;-70
2021/04/22 12:08:11;;;;;;;4.35;1.95;;;;;;;;;;8326207;28;20474;-69
2021/04/22 12:12:21;;;;;;;7.32;1.92;;;;;;;;;;8331587;28;20483;-70
2021/04/22 12:16:25;;;;;;;20.08;7.78;;;;;;;;;;8330419;28;20467;-69
2021/04/22 12:20:30;;;;;;;11.30;4.00;;;;;;;;;;8328910;28;20467;-71
2021/04/22 12:24:35;;;;;;;19.17;7.05;;;;;;;;;;8329137;28;20111;-71
2021/04/22 12:29:00;;;;;;;9.85;2.20;;;;;;;;;;8330122;28;20362;-70
2021/04/22 12:33:13;;;;;;;16.25;4.53;;;;;;;;;;8328095;28;20075;-70
2021/04/22 12:37:19;;;;;;;7.60;2.42;;;;;;;;;;8330033;28;20048;-69
2021/04/22 12:41:23;;;;;;;6.85;2.75;;;;;;;;;;8328803;28;20409;-72
2021/04/22 12:45:29;;;;;;;7.28;2.15;;;;;;;;;;8326445;28;20497;-69
2021/04/22 12:49:46;;;;;;;15.18;7.22;;;;;;;;;;8328204;28;20063;-70
2021/04/22 12:53:50;;;;;;;72.97;38.13;;;;;;;;;;8327803;28;20371;-70
2021/04/22 12:57:57;;;;;;;8.98;2.38;;;;;;;;;;8330030;28;20488;-69
2021/04/22 13:02:01;;;;;;;11.68;3.30;;;;;;;;;;8329236;28;20478;-70
2021/04/22 13:06:15;;;;;;;8.02;3.88;;;;;;;;;;8328459;28;20386;-70
2021/04/22 13:10:20;;;;;;;37.78;14.27;;;;;;;;;;8326424;28;20052;-70
2021/04/22 13:14:29;;;;;;;14.32;5.85;;;;;;;;;;8342640;28;20597;-70
2021/04/22 13:18:36;;;;;;;9.77;3.17;;;;;;;;;;8325331;28;20450;-70
2021/04/22 13:22:52;;;;;;;15.60;3.60;;;;;;;;;;8328189;28;20378;-71
2021/04/22 13:27:06;;;;;;;11.32;3.75;;;;;;;;;;8324745;28;20472;-69
2021/04/22 13:31:25;;;;;;;6.03;2.78;;;;;;;;;;8323567;27;20700;-69
2021/04/22 13:35:30;;;;;;;11.25;4.38;;;;;;;;;;8323428;28;20479;-70
2021/04/22 13:39:36;;;;;;;8.20;3.65;;;;;;;;;;8355700;27;20090;-69
2021/04/22 13:49:55;;;;;;;31.05;18.00;;;;;;;;;;8332386;28;20400;-70
2021/04/22 13:54:12;;;;;;;16.63;8.10;;;;;;;;;;8323739;28;20360;-70
2021/04/22 13:58:35;;;;;;;8.30;2.60;;;;;;;;;;8323087;28;20048;-70
2021/04/22 14:02:43;;;;;;;11.98;2.95;;;;;;;;;;8339701;27;20360;-69
2021/04/22 14:06:52;;;;;;;5.35;2.40;;;;;;;;;;8323925;28;20496;-70
2021/04/22 14:17:11;;;;;;;8.18;2.28;;;;;;;;;;8285461;28;20363;-69
2021/04/22 14:21:15;;;;;;;12.55;5.07;;;;;;;;;;8286506;28;20435;-69
2021/04/22 14:25:19;;;;;;;11.95;2.83;;;;;;;;;;8285879;28;20365;-70
2021/04/22 14:29:26;;;;;;;5.13;2.28;;;;;;;;;;8285722;28;20637;-70
2021/04/22 14:33:32;;;;;;;7.35;2.22;;;;;;;;;;8285415;28;20056;-70
2021/04/22 14:37:37;;;;;;;6.68;1.98;;;;;;;;;;8285627;28;20485;-69
2021/04/22 14:42:01;;;;;;;4.70;1.92;;;;;;;;;;8285116;28;20414;-70
2021/04/22 14:46:06;;;;;;;13.60;5.85;;;;;;;;;;8281401;28;20557;-68
2021/04/22 14:50:11;;;;;;;16.85;5.47;;;;;;;;;;8339844;28;20331;-68
2021/04/22 14:54:18;;;;;;;22.63;8.80;;;;;;;;;;8322222;28;20471;-68
2021/04/22 14:58:23;;;;;;;8.63;2.30;;;;;;;;;;8322650;28;20478;-70
2021/04/22 15:02:27;;;;;;;9.90;4.57;;;;;;;;;;8324897;28;20412;-69
2021/04/22 15:06:39;;;;;;;8.85;4.20;;;;;;;;;;8322817;28;20051;-68
2021/04/22 15:10:42;;;;;;;7.13;2.80;;;;;;;;;;8322986;28;20359;-67
2021/04/22 15:14:47;;;;;;;5.88;2.00;;;;;;;;;;8323268;28;20048;-68
2021/04/22 15:18:51;;;;;;;9.45;2.05;;;;;;;;;;8322134;28;20459;-69
2021/04/22 15:22:57;;;;;;;8.02;1.60;;;;;;;;;;8323297;28;20474;-68
2021/04/22 15:27:02;;;;;;;3.20;1.60;;;;;;;;;;8329006;28;20486;-68
2021/04/22 15:31:07;;;;;;;105.10;63.88;;;;;;;;;;8328897;28;20451;-69
2021/04/22 15:35:14;;;;;;;5.82;1.92;;;;;;;;;;8328451;28;20370;-68
2021/04/22 15:39:19;;;;;;;7.13;2.83;;;;;;;;;;8327670;28;20364;-67
2021/04/22 15:43:25;;;;;;;7.72;2.83;;;;;;;;;;8327864;28;20066;-69
2021/04/22 15:47:31;;;;;;;9.48;3.58;;;;;;;;;;8328183;28;20355;-68
2021/04/22 15:51:35;;;;;;;5.25;2.75;;;;;;;;;;8329998;28;20489;-68
2021/04/22 15:55:40;;;;;;;8.52;3.05;;;;;;;;;;8329865;28;20040;-69
2021/04/22 15:59:45;;;;;;;3.45;1.70;;;;;;;;;;8329678;28;20482;-69
2021/04/22 16:03:50;;;;;;;3.05;1.60;;;;;;;;;;8326541;28;20375;-69
2021/04/22 16:07:54;;;;;;;13.20;4.20;;;;;;;;;;8325804;28;20485;-70
2021/04/22 16:11:59;;;;;;;15.32;5.43;;;;;;;;;;8327129;28;20082;-69
2021/04/22 16:16:04;;;;;;;12.52;4.80;;;;;;;;;;8328665;28;20367;-70
2021/04/22 16:20:11;;;;;;;9.95;3.65;;;;;;;;;;8328329;28;20067;-70
2021/04/22 16:24:15;;;;;;;13.88;5.03;;;;;;;;;;8327331;28;20377;-69
2021/04/22 16:28:19;;;;;;;11.50;5.18;;;;;;;;;;8326877;28;20493;-69
2021/04/22 16:32:23;;;;;;;5.88;3.10;;;;;;;;;;8325608;28;20382;-70
2021/04/22 16:36:28;;;;;;;2.72;1.40;;;;;;;;;;8325990;28;20479;-69
2021/04/22 16:40:33;;;;;;;3.78;1.50;;;;;;;;;;8327345;28;20405;-69
2021/04/22 16:44:37;;;;;;;5.78;3.42;;;;;;;;;;8327487;28;20382;-69
2021/04/22 16:48:42;;;;;;;10.88;5.85;;;;;;;;;;8324199;28;20386;-69
2021/04/22 16:52:49;;;;;;;15.18;7.20;;;;;;;;;;8341859;28;20066;-69
2021/04/22 16:56:53;;;;;;;9.48;4.47;;;;;;;;;;8325351;28;20048;-69
2021/04/22 17:00:57;;;;;;;13.40;3.22;;;;;;;;;;8326995;28;20074;-69
2021/04/22 17:05:04;;;;;;;6.65;2.67;;;;;;;;;;8325922;28;20479;-68
2021/04/22 17:09:09;;;;;;;9.90;3.03;;;;;;;;;;8325567;28;20048;-69
2021/04/22 17:13:16;;;;;;;19.00;2.70;;;;;;;;;;8326168;28;20546;-69
2021/04/22 17:17:22;;;;;;;5.68;2.85;;;;;;;;;;8325634;28;20048;-69
2021/04/22 17:21:27;;;;;;;8.60;3.00;;;;;;;;;;8325426;28;20367;-69
2021/04/22 17:25:32;;;;;;;12.23;4.97;;;;;;;;;;8326315;28;20374;-69
2021/04/22 17:29:36;;;;;;;12.40;4.18;;;;;;;;;;8327037;28;20449;-70
2021/04/22 17:33:45;;;;;;;15.82;5.55;;;;;;;;;;8327963;28;20478;-69
2021/04/22 17:37:55;;;;;;;16.70;6.93;;;;;;;;;;8326999;28;20443;-70
2021/04/22 17:42:00;;;;;;;23.33;7.95;;;;;;;;;;8323535;28;20359;-69
2021/04/22 17:46:04;;;;;;;36.35;10.85;;;;;;;;;;8324642;28;20391;-70
2021/04/22 17:50:09;;;;;;;30.77;8.23;;;;;;;;;;8325673;28;20397;-70
2021/04/22 17:54:15;;;;;;;57.40;24.15;;;;;;;;;;8323831;28;20447;-70
2021/04/22 17:58:20;;;;;;;41.83;17.45;;;;;;;;;;8322592;28;20481;-70
2021/04/22 18:02:25;;;;;;;44.22;15.70;;;;;;;;;;8324456;28;20344;-70
2021/04/22 18:06:29;;;;;;;70.30;21.85;;;;;;;;;;8322663;28;20528;-69
2021/04/22 18:10:34;;;;;;;82.57;25.75;;;;;;;;;;8322237;28;20405;-69
2021/04/22 18:14:39;;;;;;;29.63;13.25;;;;;;;;;;8325379;28;20056;-70
2021/04/22 18:18:44;;;;;;;21.27;8.50;;;;;;;;;;8324487;28;20134;-70
2021/04/22 18:22:50;;;;;;;15.75;4.90;;;;;;;;;;8323545;28;20044;-70
2021/04/22 18:26:58;;;;;;;15.40;3.42;;;;;;;;;;8323079;28;20340;-70
2021/04/22 18:31:05;;;;;;;9.88;3.08;;;;;;;;;;8323685;28;20048;-69
2021/04/22 18:35:13;;;;;;;8.60;2.83;;;;;;;;;;8323753;28;20470;-70
2021/04/22 18:39:18;;;;;;;8.87;2.87;;;;;;;;;;8322401;28;20406;-70
2021/04/22 18:43:23;;;;;;;5.70;2.38;;;;;;;;;;8320841;28;20078;-70
2021/04/22 18:47:28;;;;;;;12.13;3.75;;;;;;;;;;8322918;28;20452;-69
2021/04/22 18:51:32;;;;;;;12.50;3.67;;;;;;;;;;8338508;28;20059;-69
2021/04/22 18:55:37;;;;;;;12.95;3.13;;;;;;;;;;8323428;28;20459;-68
2021/04/22 18:59:41;;;;;;;12.70;3.63;;;;;;;;;;8321354;28;20371;-69
2021/04/22 19:03:49;;;;;;;24.50;10.02;;;;;;;;;;8323059;28;20485;-69
2021/04/22 19:07:53;;;;;;;25.27;8.05;;;;;;;;;;8321696;28;20382;-69
2021/04/22 19:12:02;;;;;;;15.30;6.05;;;;;;;;;;8322489;28;20435;-69
2021/04/22 19:16:07;;;;;;;15.02;5.15;;;;;;;;;;8321335;28;20375;-69
2021/04/22 19:20:13;;;;;;;16.83;6.43;;;;;;;;;;8322186;28;20383;-69
2021/04/22 19:24:18;;;;;;;15.98;5.90;;;;;;;;;;8321533;28;20379;-69
2021/04/22 19:28:22;;;;;;;18.40;5.95;;;;;;;;;;8324216;28;20352;-69
2021/04/22 19:32:28;;;;;;;14.55;5.60;;;;;;;;;;8321942;28;20410;-69
2021/04/22 19:36:34;;;;;;;17.13;5.90;;;;;;;;;;8320998;28;20383;-70
2021/04/22 19:40:47;;;;;;;16.63;5.05;;;;;;;;;;8324310;28;20051;-68
2021/04/22 19:44:56;;;;;;;15.90;6.25;;;;;;;;;;8323497;28;20052;-69
2021/04/22 19:49:02;;;;;;;;;;;;;;;;;;8306146;28;20447;-68
2021/04/22 19:53:16;;;;;;;33.40;10.95;;;;;;;;;;8320208;28;20468;-69
2021/04/22 19:57:22;;;;;;;34.33;11.25;;;;;;;;;;8290132;28;20439;-70
2021/04/22 20:01:29;;;;;;;32.38;8.57;;;;;;;;;;8322297;28;20383;-70
2021/04/22 20:05:35;;;;;;;42.25;12.93;;;;;;;;;;8321930;28;20390;-68
2021/04/22 20:09:42;;;;;;;53.95;17.35;;;;;;;;;;8321052;28;20493;-69
2021/04/22 20:13:51;;;;;;;64.30;15.30;;;;;;;;;;8327509;28;20478;-69
2021/04/22 20:18:10;;;;;;;77.05;18.90;;;;;;;;;;8328047;28;20097;-68
2021/04/22 20:22:27;;;;;;;67.38;17.25;;;;;;;;;;8327644;28;20455;-68
2021/04/22 20:26:32;;;;;;;27.65;8.95;;;;;;;;;;8329996;28;20481;-71
2021/04/22 20:30:37;;;;;;;45.17;12.70;;;;;;;;;;8326418;28;20473;-70
2021/04/22 20:34:41;;;;;;;32.75;9.00;;;;;;;;;;8326918;28;20512;-70
2021/04/22 20:38:47;;;;;;;36.22;11.88;;;;;;;;;;8328166;28;20394;-70
2021/04/22 20:43:01;;;;;;;37.00;15.20;;;;;;;;;;8326948;28;20471;-69
2021/04/22 20:47:08;;;;;;;34.17;12.27;;;;;;;;;;8325696;28;20489;-70
2021/04/22 20:51:15;;;;;;;32.70;12.23;;;;;;;;;;8327373;28;20473;-70
2021/04/22 20:55:21;;;;;;;33.03;10.95;;;;;;;;;;8328688;28;20071;-70
2021/04/22 20:59:29;;;;;;;26.83;10.50;;;;;;;;;;8325665;28;20379;-71
2021/04/22 21:03:33;;;;;;;27.00;9.80;;;;;;;;;;8327791;28;20370;-70
2021/04/22 21:07:49;;;;;;;52.50;16.50;;;;;;;;;;8325917;28;20383;-70
2021/04/22 21:12:07;;;;;;;58.30;16.85;;;;;;;;;;8324917;28;20462;-71
2021/04/22 21:16:13;;;;;;;50.28;13.98;;;;;;;;;;8326593;28;20363;-69
2021/04/22 21:20:18;;;;;;;53.85;17.52;;;;;;;;;;8326593;28;20500;-70
2021/04/22 21:24:27;;;;;;;43.63;18.02;;;;;;;;;;8308876;28;20074;-69
2021/04/22 21:28:35;;;;;;;49.10;14.73;;;;;;;;;;8325866;28;20369;-69
2021/04/22 21:32:40;;;;;;;36.47;13.73;;;;;;;;;;8324030;28;20443;-69
2021/04/22 21:36:45;;;;;;;41.67;12.60;;;;;;;;;;8325443;28;20074;-70
2021/04/22 21:40:52;;;;;;;38.95;12.82;;;;;;;;;;8327556;28;20348;-70
2021/04/22 21:45:01;;;;;;;44.10;13.40;;;;;;;;;;8324539;28;20383;-69
2021/04/22 21:49:07;;;;;;;46.45;13.20;;;;;;;;;;8326597;28;20475;-70
2021/04/22 21:53:12;;;;;;;38.95;13.70;;;;;;;;;;8326600;28;20370;-70
2021/04/22 21:57:16;;;;;;;36.63;13.23;;;;;;;;;;8326644;28;20372;-69
2021/04/22 22:01:20;;;;;;;45.55;14.55;;;;;;;;;;8323540;28;20510;-71
2021/04/22 22:05:25;;;;;;;54.40;14.75;;;;;;;;;;8324672;28;20358;-69
2021/04/22 22:09:41;;;;;;;50.05;14.68;;;;;;;;;;8324023;28;20056;-68
2021/04/22 22:13:44;;;;;;;76.13;20.50;;;;;;;;;;8324106;28;20501;-68
2021/04/22 22:17:49;;;;;;;41.60;13.57;;;;;;;;;;8324421;28;20355;-68
2021/04/22 22:21:56;;;;;;;38.63;13.38;;;;;;;;;;8324099;28;20428;-69
2021/04/22 22:25:59;;;;;;;38.72;13.80;;;;;;;;;;8325044;28;20047;-68
2021/04/22 22:30:10;;;;;;;40.78;12.90;;;;;;;;;;8324233;28;20489;-70
2021/04/22 22:34:15;;;;;;;36.20;12.23;;;;;;;;;;8323740;28;20459;-68
2021/04/22 22:38:21;;;;;;;37.33;12.13;;;;;;;;;;8325412;28;20044;-67
2021/04/22 22:42:25;;;;;;;45.70;11.93;;;;;;;;;;8323473;28;20359;-68
2021/04/22 22:46:30;;;;;;;30.05;10.07;;;;;;;;;;8323400;28;20466;-69
2021/04/22 22:50:36;;;;;;;27.45;9.88;;;;;;;;;;8325072;28;20367;-69
2021/04/22 22:54:40;;;;;;;32.45;11.05;;;;;;;;;;8323385;28;20467;-67
2021/04/22 22:58:44;;;;;;;38.67;12.32;;;;;;;;;;8323183;28;20382;-67
2021/04/22 23:02:49;;;;;;;36.53;11.13;;;;;;;;;;8323902;28;20466;-67
2021/04/22 23:06:53;;;;;;;24.33;9.88;;;;;;;;;;8323293;28;20382;-67
2021/04/22 23:10:57;;;;;;;38.17;11.02;;;;;;;;;;8323825;28;20347;-67
2021/04/22 23:15:01;;;;;;;34.60;12.02;;;;;;;;;;8325294;28;20078;-67
2021/04/22 23:19:06;;;;;;;34.65;11.18;;;;;;;;;;8322940;28;20040;-68
2021/04/22 23:23:10;;;;;;;33.13;9.90;;;;;;;;;;8323297;28;20353;-67
2021/04/22 23:27:15;;;;;;;29.55;10.07;;;;;;;;;;8323127;28;20362;-68
2021/04/22 23:31:19;;;;;;;35.80;11.55;;;;;;;;;;8323143;28;20332;-67
2021/04/22 23:35:25;;;;;;;36.58;10.23;;;;;;;;;;8321982;28;20348;-68
2021/04/22 23:39:29;;;;;;;27.30;10.00;;;;;;;;;;8324175;28;20521;-67
2021/04/22 23:43:37;;;;;;;31.55;9.70;;;;;;;;;;8323148;28;20374;-67
2021/04/22 23:47:41;;;;;;;30.52;10.18;;;;;;;;;;8329799;28;20044;-67
2021/04/22 23:51:46;;;;;;;30.85;9.48;;;;;;;;;;8329151;28;20052;-67
2021/04/22 23:55:50;;;;;;;26.40;9.57;;;;;;;;;;8328643;28;20048;-67
2021/04/22 23:59:54;;;;;;;30.30;9.40;;;;;;;;;;8330098;28;20455;-67
